Portland, OR

12:46 PM PST on November 12, 2019 (GMT -0800)
Portland International | | Change Station

Elev 30 ft 45.59 °N, 122.60 °W | Updated 53 minutes ago

Overcast
Overcast
48 °F
Feels Like 48 °F
N
0
Wind Variable Wind from North

Today
High -- | Low -- °F
--% Chance of Precip.
Yesterday
High -- | Low -- °F
Precip. -- in
Pressure 30.17 in
Visibility 10.0 miles
Clouds Scattered Clouds 3300 ft
Mostly Cloudy 6000 ft
Overcast 7500 ft
Dew Point 45 °F
Humidity 89%
Rainfall 0.16 in
Snow Depth Not available.
7:05 AM 4:43 PM
Full, 100% visible
METAR KPDX 121953Z 00000KT 10SM SCT033 BKN060 OVC075 09/07 A3017 RMK AO2 RAB1856E48 SLP216 P0004 T00890072
Pressure 30.17 in
Visibility 10.0 miles
Clouds Scattered Clouds 3300 ft
Mostly Cloudy 6000 ft
Overcast 7500 ft
Dew Point 45 °F
Humidity 89%
Rainfall 0.16 in
Snow Depth Not available.
7:05 AM 4:43 PM
Full, 100% visible
METAR KPDX 121953Z 00000KT 10SM SCT033 BKN060 OVC075 09/07 A3017 RMK AO2 RAB1856E48 SLP216 P0004 T00890072

Get Severe Weather Alerts

Thanks for signing up!

Be on the lookout for a verification email in your inbox.

You'll start receiving the daily forecast at 6 AM.

×

10-Day Weather Forecast

Almanac

Astronomy

Nov. 12, 2019 Rise Set
Actual Time
Civil Twilight
Nautical Twilight
Astronomical Twilight
Moon
Length of Visible Light
Length of Day
Tomorrow will be .
, % of the Moon is Illuminated

Today's Extremes

State Highs State Lows

Community

WunderPhotos

Category 6

Welcome to Category 6. This is the collective home for Weather Underground's featured writeups by Dr. Jeff Masters (right), Bob Henson (left), Chris Burt, and other regular contributors.

Nearby

Air Quality

  Air Quality AQ Index Pollutant
Not available.

Snow Depth

Station Depth Elevation

Earthquake Activity

City Distance Mag. Time & Date
Minimum magnitude displayed is 2.5.

Coastal Water Temperatures

Place Temperature

Stations

Nearby Weather Stations

Station Location Temp. Windchill Dew Point Humidity Wind Precip. Elev Updated Type
                   

Watches & Warnings

There are currently no watches in effect.